Terminal Aerodrome Forecast
Issued by NWS Blacksburg, VA

Current Version | Previous Version | Graphics & Text | Print | Product List | Glossary On
Versions: 1 2 3 4 5 6 7 8 9 10 11 12 13 14 15 16 17 18
000
FTUS41 KRNK 161739
TAFBLF
TAF
KBLF 161739Z 1618/1718 28012G24KT P6SM VCSH OVC020
      TEMPO 1618/1622 3SM -SHSN SCT007 OVC012
     FM162200 28015G24KT 5SM -SHSN OVC015
      TEMPO 1622/1702 1SM -SHSN BKN007
     FM170600 28012G24KT P6SM VCSH OVC020
      TEMPO 1706/1710 3SM -SHSN SCT007 OVC012
     FM171500 27020G30KT P6SM SCT060=

USA.gov is the U.S. government's official web portal to all federal, state and local government web resources and services.